Time;durP1;ratioP1;P1;durP2;ratioP2;P2;SDS_P1;SDS_P2;PMS_P1;PMS_P2;Temp;Humidity;BMP_temperature;BMP_pressure;BME280_temperature;BME280_humidity;BME280_pressure;Samples;Min_cycle;Max_cycle;Signal;HPM_P1;HPM_P2
2023/01/01 00:01:59;;;;;;;18.85;12.60;;;;;;;13.82;100.00;96736.19;5057057;28;20076;-42
2023/01/01 00:04:28;;;;;;;17.52;11.80;;;;;;;13.62;100.00;96722.31;5055620;28;20113;-38
2023/01/01 00:06:58;;;;;;;17.52;11.50;;;;;;;13.15;100.00;96741.19;5058190;28;20080;-43
2023/01/01 00:12:12;;;;;;;22.63;12.57;;;;;;;13.15;100.00;96749.13;5056497;28;20545;-37
2023/01/01 00:14:43;;;;;;;22.58;14.30;;;;;;;12.33;100.00;96756.28;5057919;28;20075;-41
2023/01/01 00:17:11;;;;;;;;;;;;;;;12.20;100.00;96755.81;5056386;28;20529;-43
2023/01/01 00:19:39;;;;;;;30.05;20.27;;;;;;;12.32;100.00;96753.81;5061503;28;19960;-43
2023/01/01 00:22:09;;;;;;;30.75;16.60;;;;;;;12.57;100.00;96747.78;5055041;28;20080;-48
2023/01/01 00:24:57;;;;;;;27.27;18.15;;;;;;;12.93;100.00;96752.25;5057660;28;20072;-39
2023/01/01 00:27:25;;;;;;;33.50;22.20;;;;;;;13.09;100.00;96740.97;5057260;28;20087;-40
2023/01/01 00:29:54;;;;;;;44.85;26.13;;;;;;;13.25;100.00;96749.91;5054993;28;20076;-45
2023/01/01 00:32:22;;;;;;;50.83;30.20;;;;;;;13.26;100.00;96748.09;5051977;28;20106;-40
2023/01/01 00:34:51;;;;;;;39.92;25.40;;;;;;;13.11;100.00;96757.50;5060704;28;20110;-39
2023/01/01 00:37:21;;;;;;;34.88;19.55;;;;;;;13.13;100.00;96748.44;5056270;28;20084;-38
2023/01/01 00:39:49;;;;;;;29.45;19.08;;;;;;;13.01;100.00;96747.88;5057880;28;20080;-40
2023/01/01 00:42:17;;;;;;;31.33;20.48;;;;;;;13.25;100.00;96754.38;5052617;28;20064;-38
2023/01/01 00:44:45;;;;;;;33.58;19.95;;;;;;;13.20;100.00;96753.97;5056164;28;20090;-41
2023/01/01 00:47:14;;;;;;;32.65;20.33;;;;;;;13.23;100.00;96751.00;5055252;28;20087;-38
2023/01/01 00:49:42;;;;;;;44.15;27.02;;;;;;;13.36;100.00;96748.00;5062835;28;20076;-39
2023/01/01 00:52:10;;;;;;;56.78;37.38;;;;;;;13.40;100.00;96755.47;5064017;28;20080;-44
2023/01/01 00:54:40;;;;;;;55.50;33.95;;;;;;;13.45;100.00;96742.56;5059106;28;20083;-43
2023/01/01 00:57:08;;;;;;;71.77;39.80;;;;;;;13.19;100.00;96741.72;5061714;28;20102;-37
2023/01/01 00:59:37;;;;;;;58.25;33.53;;;;;;;13.30;100.00;96744.13;5057890;28;20516;-39
2023/01/01 01:02:05;;;;;;;75.40;44.08;;;;;;;13.10;100.00;96753.22;5059794;28;20084;-39
2023/01/01 01:04:34;;;;;;;82.35;47.70;;;;;;;13.47;100.00;96743.25;5056837;28;20512;-40
2023/01/01 01:07:02;;;;;;;86.28;49.45;;;;;;;13.38;100.00;96748.66;5061220;28;20087;-40
2023/01/01 01:09:31;;;;;;;105.78;60.72;;;;;;;13.43;100.00;96741.09;5045305;28;20243;-40
2023/01/01 01:12:00;;;;;;;138.90;78.45;;;;;;;13.33;100.00;96745.66;5051625;28;20099;-38
2023/01/01 01:14:46;;;;;;;163.52;96.28;;;;;;;13.79;100.00;96752.38;5052094;28;20121;-44
2023/01/01 01:17:15;;;;;;;169.68;94.72;;;;;;;13.59;100.00;96772.16;5059301;28;20072;-48
2023/01/01 01:19:43;;;;;;;101.63;54.53;;;;;;;12.96;100.00;96773.94;5052159;28;20079;-39
2023/01/01 01:22:11;;;;;;;120.80;73.80;;;;;;;13.22;100.00;96760.78;5051435;28;20083;-39
2023/01/01 01:24:40;;;;;;;138.40;82.25;;;;;;;13.41;100.00;96766.91;5054605;28;20076;-37
2023/01/01 01:27:09;;;;;;;156.60;93.20;;;;;;;13.56;100.00;96778.59;5056694;28;20081;-40
2023/01/01 01:29:38;;;;;;;170.73;101.32;;;;;;;13.66;100.00;96770.53;5056031;28;20052;-40
2023/01/01 01:32:06;;;;;;;163.88;97.75;;;;;;;13.71;100.00;96781.50;5057179;28;20076;-44
2023/01/01 01:34:35;;;;;;;169.52;96.40;;;;;;;13.70;100.00;96787.81;5052036;28;20602;-46
2023/01/01 01:37:03;;;;;;;124.85;73.30;;;;;;;13.30;100.00;96787.34;5064171;28;20079;-41
2023/01/01 01:39:32;;;;;;;57.80;30.67;;;;;;;12.90;100.00;96803.66;5058432;28;20080;-38
2023/01/01 01:42:02;;;;;;;119.00;72.38;;;;;;;12.74;100.00;96804.34;5053204;28;20064;-45
2023/01/01 01:44:59;;;;;;;133.18;77.85;;;;;;;12.76;100.00;96810.31;5056381;28;20081;-41
2023/01/01 01:47:31;;;;;;;162.15;101.53;;;;;;;12.76;100.00;96804.19;5005721;28;20100;-41
2023/01/01 01:50:04;;;;;;;187.93;111.50;;;;;;;12.97;100.00;96799.47;5052579;28;20084;-47
2023/01/01 01:52:35;;;;;;;193.90;116.97;;;;;;;13.03;100.00;96798.00;5060774;28;20084;-40
2023/01/01 01:55:04;;;;;;;195.20;115.35;;;;;;;13.05;100.00;96806.63;5054917;28;20072;-40
2023/01/01 01:57:33;;;;;;;206.55;122.05;;;;;;;13.09;100.00;96802.69;5050770;28;20087;-38
2023/01/01 02:00:04;;;;;;;192.48;118.75;;;;;;;13.10;100.00;96798.22;5054648;28;20087;-45
2023/01/01 02:02:42;;;;;;;208.82;124.60;;;;;;;13.18;100.00;96800.94;5052981;28;20119;-37
2023/01/01 02:05:11;;;;;;;214.48;131.75;;;;;;;13.18;100.00;96790.34;5062862;28;20508;-39
2023/01/01 02:07:40;;;;;;;213.77;129.93;;;;;;;13.21;100.00;96804.13;5050863;28;20049;-42
2023/01/01 02:10:09;;;;;;;223.50;137.32;;;;;;;13.25;100.00;96802.06;5072863;28;20456;-43
2023/01/01 02:12:37;;;;;;;218.95;133.55;;;;;;;12.94;100.00;96794.47;5053500;28;20076;-37
2023/01/01 02:15:09;;;;;;;222.30;134.13;;;;;;;12.66;100.00;96792.84;5054884;28;20108;-43
2023/01/01 02:17:42;;;;;;;223.05;138.25;;;;;;;12.79;100.00;96795.94;5054029;28;20092;-42
2023/01/01 02:20:25;;;;;;;233.80;140.27;;;;;;;12.92;100.00;96787.66;5054217;28;20527;-43
2023/01/01 02:23:16;;;;;;;239.75;143.63;;;;;;;12.80;100.00;96785.22;5053111;28;20080;-41
2023/01/01 02:25:57;;;;;;;231.15;140.85;;;;;;;12.79;100.00;96780.06;5050642;28;20102;-38
2023/01/01 02:28:48;;;;;;;239.85;149.80;;;;;;;11.96;100.00;96771.34;5053403;28;20567;-40
2023/01/01 02:31:16;;;;;;;;;;;;;;;12.28;100.00;96776.22;5053868;28;20076;-40
2023/01/01 02:33:51;;;;;;;247.68;147.73;;;;;;;12.46;100.00;96777.09;5058075;28;20235;-38
2023/01/01 02:36:20;;;;;;;256.58;154.98;;;;;;;12.02;100.00;96774.25;5050245;28;20125;-45
2023/01/01 02:38:51;;;;;;;272.23;163.52;;;;;;;11.91;100.00;96776.25;5051289;28;20107;-38
2023/01/01 02:41:24;;;;;;;280.75;172.75;;;;;;;11.73;100.00;96771.69;5050094;28;20084;-44
2023/01/01 02:43:54;;;;;;;270.48;164.80;;;;;;;12.30;100.00;96775.09;5054067;28;20072;-44
2023/01/01 02:46:22;;;;;;;280.83;169.85;;;;;;;12.26;100.00;96768.44;5049065;28;20087;-40
2023/01/01 02:48:51;;;;;;;281.65;176.85;;;;;;;12.44;100.00;96768.47;5048852;28;20065;-37
2023/01/01 02:51:26;;;;;;;281.48;177.70;;;;;;;12.41;100.00;96768.75;5051192;28;20515;-39
2023/01/01 02:54:01;;;;;;;276.85;169.77;;;;;;;12.43;100.00;96773.91;5054379;28;20529;-45
2023/01/01 02:56:36;;;;;;;276.88;174.25;;;;;;;12.33;100.00;96774.78;5052762;28;20091;-51
2023/01/01 03:02:06;;;;;;;294.23;179.60;;;;;;;12.10;100.00;96769.06;5051717;28;20083;-44
2023/01/01 03:04:42;;;;;;;302.08;180.02;;;;;;;12.20;100.00;96778.75;5054644;28;20076;-39
2023/01/01 03:07:13;;;;;;;310.90;192.40;;;;;;;11.82;100.00;96775.28;5052271;28;20080;-42
2023/01/01 03:09:46;;;;;;;298.83;189.82;;;;;;;12.00;100.00;96776.19;5052293;28;20077;-37
2023/01/01 03:12:24;;;;;;;291.33;182.38;;;;;;;12.02;100.00;96778.72;5053141;28;20483;-37
2023/01/01 03:14:58;;;;;;;288.70;179.63;;;;;;;12.08;100.00;96778.97;5049384;28;20533;-42
2023/01/01 03:17:31;;;;;;;283.90;172.60;;;;;;;12.15;100.00;96775.72;5048795;28;20111;-37
2023/01/01 03:20:02;;;;;;;291.52;182.75;;;;;;;11.98;100.00;96782.63;5049297;28;20077;-41
2023/01/01 03:22:33;;;;;;;279.05;173.05;;;;;;;11.70;100.00;96798.41;5052599;28;20084;-48
2023/01/01 03:25:07;;;;;;;269.80;165.98;;;;;;;11.43;100.00;96804.44;5052523;28;20076;-41
2023/01/01 03:27:39;;;;;;;264.48;156.82;;;;;;;11.36;100.00;96798.06;5049547;28;20072;-39
2023/01/01 03:30:11;;;;;;;282.35;174.50;;;;;;;11.43;100.00;96801.81;5051027;28;20087;-42
2023/01/01 03:33:03;;;;;;;283.35;171.55;;;;;;;11.32;100.00;96794.88;5050730;28;20080;-42
2023/01/01 03:35:35;;;;;;;278.50;168.50;;;;;;;11.11;100.00;96799.44;5049687;28;20083;-40
2023/01/01 03:38:07;;;;;;;286.92;167.98;;;;;;;11.24;100.00;96805.28;5054292;28;20072;-38
2023/01/01 03:40:37;;;;;;;292.75;173.80;;;;;;;11.48;100.00;96796.09;5047768;28;20540;-40
2023/01/01 03:43:09;;;;;;;290.98;178.38;;;;;;;11.44;100.00;96798.19;5055068;28;20084;-41
2023/01/01 03:45:41;;;;;;;290.40;175.10;;;;;;;11.37;100.00;96799.72;5056831;28;20580;-43
2023/01/01 03:48:10;;;;;;;296.20;180.05;;;;;;;11.48;100.00;96796.09;5053283;28;20084;-47
2023/01/01 03:50:48;;;;;;;281.33;170.93;;;;;;;11.49;100.00;96801.22;5052206;28;20077;-47
2023/01/01 03:53:21;;;;;;;297.88;181.32;;;;;;;11.62;100.00;96800.91;5049116;28;20077;-42
2023/01/01 03:55:53;;;;;;;300.80;180.38;;;;;;;11.70;100.00;96810.75;5045407;28;20076;-39
2023/01/01 03:58:26;;;;;;;287.63;177.93;;;;;;;11.63;100.00;96814.00;5054468;28;20476;-40
2023/01/01 04:01:01;;;;;;;296.50;186.15;;;;;;;11.51;100.00;96817.75;5049769;28;20476;-41
2023/01/01 04:03:31;;;;;;;294.60;181.43;;;;;;;11.40;100.00;96810.81;5051931;28;20092;-43
2023/01/01 04:06:01;;;;;;;295.73;180.02;;;;;;;11.49;100.00;96822.34;5049608;28;20087;-50
2023/01/01 04:08:32;;;;;;;302.75;183.63;;;;;;;11.15;100.00;96822.81;5056768;28;20084;-39
2023/01/01 04:12:00;;;;;;;291.90;180.23;;;;;;;11.37;100.00;96821.66;5050319;28;20814;-40
2023/01/01 04:13:52;;;;;;;281.60;175.88;;;;;;;11.23;100.00;96819.47;5051239;28;20474;-41
2023/01/01 04:16:21;;;;;;;289.52;171.30;;;;;;;11.29;100.00;96826.81;5050709;28;20085;-38
2023/01/01 04:18:50;;;;;;;291.05;174.90;;;;;;;11.31;100.00;96827.50;5044751;28;20084;-40
2023/01/01 04:21:18;;;;;;;279.63;172.48;;;;;;;11.25;100.00;96828.09;5050082;28;20080;-40
2023/01/01 04:23:46;;;;;;;263.33;162.93;;;;;;;10.89;100.00;96827.78;5052485;28;20080;-39
2023/01/01 04:26:15;;;;;;;270.30;164.68;;;;;;;11.17;100.00;96839.31;5054910;28;20077;-44
2023/01/01 04:28:43;;;;;;;262.50;161.70;;;;;;;10.83;100.00;96816.94;5055347;28;20083;-40
2023/01/01 04:31:12;;;;;;;262.20;158.55;;;;;;;10.99;100.00;96816.41;5057384;28;20487;-38
2023/01/01 04:33:41;;;;;;;265.00;161.63;;;;;;;10.58;100.00;96829.66;5055485;28;20540;-38
2023/01/01 04:36:10;;;;;;;274.13;166.70;;;;;;;10.10;100.00;96819.78;5059744;28;20076;-43
2023/01/01 04:38:38;;;;;;;240.73;140.73;;;;;;;10.67;100.00;96817.50;5058810;28;20084;-43
2023/01/01 04:41:07;;;;;;;252.30;146.75;;;;;;;10.83;100.00;96811.66;5055816;28;20083;-44
2023/01/01 04:43:35;;;;;;;239.65;149.18;;;;;;;10.80;100.00;96822.47;5055108;28;20198;-41
2023/01/01 04:46:04;;;;;;;216.20;130.93;;;;;;;10.95;100.00;96826.41;5056971;28;20076;-42
2023/01/01 04:48:34;;;;;;;146.75;89.03;;;;;;;10.99;100.00;96819.88;5055858;28;20080;-43
2023/01/01 04:51:05;;;;;;;;;;;;;;;11.11;100.00;96824.06;5058225;28;20080;-41
2023/01/01 04:53:34;;;;;;;211.55;122.57;;;;;;;11.16;100.00;96818.34;5052564;28;19960;-40
2023/01/01 04:56:04;;;;;;;204.35;124.03;;;;;;;11.11;100.00;96820.56;5051355;28;20468;-42
2023/01/01 04:58:33;;;;;;;165.87;97.87;;;;;;;11.09;100.00;96822.53;5054832;28;20088;-42
2023/01/01 05:01:02;;;;;;;138.18;80.53;;;;;;;11.15;100.00;96820.16;5051949;28;20072;-47
2023/01/01 05:03:31;;;;;;;140.15;81.60;;;;;;;11.23;100.00;96819.47;5055197;28;20542;-43
2023/01/01 05:06:00;;;;;;;185.32;115.72;;;;;;;11.15;100.00;96829.91;5056550;28;20456;-43
2023/01/01 05:08:30;;;;;;;188.43;116.88;;;;;;;11.17;100.00;96827.94;5058279;28;20511;-37
2023/01/01 05:11:02;;;;;;;141.90;87.60;;;;;;;11.25;100.00;96837.78;5058763;28;20080;-37
2023/01/01 05:13:31;;;;;;;193.38;121.07;;;;;;;11.28;100.00;96840.16;5055590;28;20114;-38
2023/01/01 05:16:02;;;;;;;178.75;107.68;;;;;;;11.23;100.00;96835.31;5054576;28;20083;-37
2023/01/01 05:18:30;;;;;;;159.90;100.85;;;;;;;11.29;100.00;96842.66;5050453;28;20532;-44
2023/01/01 05:21:00;;;;;;;154.88;94.35;;;;;;;11.37;100.00;96841.97;5054493;28;20108;-43
2023/01/01 05:23:30;;;;;;;164.65;102.05;;;;;;;11.38;100.00;96844.44;5052325;28;20088;-40
2023/01/01 05:25:59;;;;;;;144.00;89.97;;;;;;;11.45;100.00;96846.53;5052749;28;20072;-39
2023/01/01 05:28:27;;;;;;;93.95;55.33;;;;;;;11.46;100.00;96846.41;5051585;28;20103;-42
2023/01/01 05:30:55;;;;;;;83.43;50.67;;;;;;;11.50;100.00;96842.50;5048883;28;20481;-44
2023/01/01 05:33:23;;;;;;;113.63;68.57;;;;;;;11.50;100.00;96849.59;5051629;28;20088;-43
2023/01/01 05:35:55;;;;;;;75.15;44.95;;;;;;;11.54;100.00;96854.47;5052464;28;20080;-40
2023/01/01 05:38:23;;;;;;;66.50;40.03;;;;;;;11.57;100.00;96851.53;5050596;28;20085;-38
2023/01/01 05:40:52;;;;;;;86.78;52.22;;;;;;;11.57;100.00;96843.59;5053184;28;20665;-46
2023/01/01 05:43:21;;;;;;;95.22;56.53;;;;;;;11.58;100.00;96844.44;5058394;28;20100;-43
2023/01/01 05:45:49;;;;;;;49.85;31.17;;;;;;;11.68;100.00;96845.25;5050486;28;20090;-45
2023/01/01 05:48:17;;;;;;;34.08;22.92;;;;;;;11.72;100.00;96853.72;5058534;28;20453;-44
2023/01/01 05:50:46;;;;;;;28.15;17.25;;;;;;;11.78;100.00;96842.59;5056833;28;20099;-51
2023/01/01 05:53:14;;;;;;;19.25;12.95;;;;;;;11.75;100.00;96850.81;5050701;28;20084;-42
2023/01/01 05:55:42;;;;;;;15.27;11.00;;;;;;;11.88;100.00;96857.50;5050475;28;20080;-40
2023/01/01 05:58:12;;;;;;;17.63;11.32;;;;;;;12.04;100.00;96856.91;5056542;28;20076;-40
2023/01/01 06:00:40;;;;;;;14.53;9.80;;;;;;;11.93;100.00;96866.78;5053034;28;20056;-46
2023/01/01 06:03:09;;;;;;;14.45;9.10;;;;;;;12.13;100.00;96868.41;5052365;28;20083;-41
2023/01/01 06:05:37;;;;;;;11.23;8.38;;;;;;;12.15;100.00;96871.75;5054444;28;20072;-41
2023/01/01 06:08:05;;;;;;;12.80;8.50;;;;;;;12.15;100.00;96868.25;5052669;28;20796;-42
2023/01/01 06:10:34;;;;;;;10.43;7.55;;;;;;;12.20;100.00;96873.94;5053463;28;20150;-42
2023/01/01 06:13:02;;;;;;;10.90;7.40;;;;;;;12.16;100.00;96885.78;5050263;28;20071;-38
2023/01/01 06:15:41;;;;;;;11.13;7.60;;;;;;;12.17;100.00;96882.16;5053895;28;20433;-39
2023/01/01 06:18:09;;;;;;;9.18;7.18;;;;;;;12.09;100.00;96882.91;5051871;28;20131;-40
2023/01/01 06:20:38;;;;;;;11.57;7.03;;;;;;;12.09;100.00;96889.00;5051087;28;20068;-40
2023/01/01 06:23:06;;;;;;;14.30;10.48;;;;;;;12.11;100.00;96902.94;5053736;28;20092;-40
2023/01/01 06:25:34;;;;;;;24.90;17.23;;;;;;;11.95;100.00;96893.94;5047501;28;20437;-37
2023/01/01 06:28:03;;;;;;;28.48;19.88;;;;;;;11.86;100.00;96893.78;5052552;28;20080;-39
2023/01/01 06:30:33;;;;;;;33.80;23.48;;;;;;;11.70;100.00;96895.31;5054063;28;20068;-38
2023/01/01 06:33:03;;;;;;;17.55;12.75;;;;;;;11.71;100.00;96895.19;5047913;28;20068;-41
2023/01/01 06:35:31;;;;;;;12.27;8.63;;;;;;;11.79;100.00;96891.81;5050839;28;20087;-39
2023/01/01 06:38:00;;;;;;;14.00;10.40;;;;;;;11.83;100.00;96893.19;5052108;28;20080;-38
2023/01/01 06:40:28;;;;;;;10.45;6.45;;;;;;;11.90;100.00;96891.69;5047640;28;20102;-41
2023/01/01 06:42:56;;;;;;;8.15;5.57;;;;;;;11.95;100.00;96896.56;5051791;28;20087;-38
2023/01/01 06:45:25;;;;;;;7.30;5.20;;;;;;;12.01;100.00;96904.75;5052950;28;20071;-40
2023/01/01 06:47:53;;;;;;;7.03;5.20;;;;;;;12.07;100.00;96904.16;5052471;28;20134;-38
2023/01/01 06:50:23;;;;;;;7.97;6.20;;;;;;;12.03;100.00;96892.22;5051864;28;20075;-42
2023/01/01 06:52:51;;;;;;;7.87;5.87;;;;;;;12.09;100.00;96904.03;5048540;28;20065;-43
2023/01/01 06:55:19;;;;;;;8.77;6.10;;;;;;;12.09;100.00;96918.09;5052589;28;20512;-41
2023/01/01 06:57:51;;;;;;;7.07;5.13;;;;;;;12.06;100.00;96913.09;5052578;28;20069;-40
2023/01/01 07:00:20;;;;;;;7.32;5.35;;;;;;;12.08;100.00;96923.53;5050913;28;20064;-41
2023/01/01 07:02:48;;;;;;;6.10;4.68;;;;;;;12.03;100.00;96908.06;5056360;28;20091;-38
2023/01/01 07:05:17;;;;;;;6.20;4.53;;;;;;;12.07;100.00;96913.91;5055801;28;20076;-49
2023/01/01 07:07:47;;;;;;;5.40;4.80;;;;;;;12.08;100.00;96916.44;5046391;28;20104;-46
2023/01/01 07:10:15;;;;;;;6.68;4.95;;;;;;;12.15;100.00;96915.84;5050449;28;20084;-46
2023/01/01 07:12:44;;;;;;;4.97;4.32;;;;;;;12.13;100.00;96918.63;5046899;28;20052;-48
2023/01/01 07:15:12;;;;;;;5.45;4.30;;;;;;;12.25;100.00;96927.22;5050513;28;20082;-41
2023/01/01 07:17:40;;;;;;;4.60;4.00;;;;;;;12.35;100.00;96925.38;5052281;28;20044;-49
2023/01/01 07:20:09;;;;;;;6.35;4.22;;;;;;;12.39;100.00;96933.88;5051932;28;20072;-42
2023/01/01 07:22:39;;;;;;;5.07;3.80;;;;;;;12.46;100.00;96930.53;5047565;28;20072;-47
2023/01/01 07:25:11;;;;;;;5.50;4.00;;;;;;;12.52;100.00;96932.56;5051392;28;20056;-47
2023/01/01 07:27:39;;;;;;;5.70;3.97;;;;;;;12.66;100.00;96941.84;5049973;28;20068;-41
2023/01/01 07:30:09;;;;;;;5.50;3.97;;;;;;;12.68;100.00;96939.88;5050110;28;20131;-47
2023/01/01 07:32:38;;;;;;;3.92;3.33;;;;;;;12.61;100.00;96949.38;5050449;28;20075;-40
2023/01/01 07:35:07;;;;;;;6.07;3.75;;;;;;;12.82;100.00;96946.50;5049097;28;20080;-44
2023/01/01 07:37:35;;;;;;;6.22;3.58;;;;;;;12.87;100.00;96948.72;5051349;28;20084;-43
2023/01/01 07:40:05;;;;;;;5.88;3.78;;;;;;;12.97;100.00;96947.72;5052662;28;20087;-38
2023/01/01 07:42:34;;;;;;;5.18;3.83;;;;;;;13.14;100.00;96959.28;5051676;28;20080;-38
2023/01/01 07:45:03;;;;;;;6.00;3.93;;;;;;;13.18;100.00;96965.13;5047675;28;20060;-39
2023/01/01 07:47:31;;;;;;;5.35;3.83;;;;;;;13.38;100.00;96971.19;5048213;28;20133;-38
2023/01/01 07:50:00;;;;;;;5.38;3.65;;;;;;;13.44;100.00;96952.03;5044974;28;20071;-40
2023/01/01 07:52:28;;;;;;;4.32;3.80;;;;;;;13.38;100.00;96955.28;5053867;28;20072;-37
2023/01/01 07:54:56;;;;;;;5.68;3.53;;;;;;;13.59;98.29;96955.00;5050010;28;20203;-38
2023/01/01 07:57:25;;;;;;;5.60;3.60;;;;;;;13.61;97.24;96956.50;5047531;28;20090;-37
2023/01/01 07:59:55;;;;;;;5.30;3.80;;;;;;;13.69;99.64;96956.56;5050142;28;20060;-43
2023/01/01 08:02:23;;;;;;;4.13;3.50;;;;;;;13.70;97.03;96960.09;5048978;28;20201;-38
2023/01/01 08:04:51;;;;;;;4.15;3.60;;;;;;;13.46;100.00;96977.41;5053247;28;20084;-45
2023/01/01 08:07:20;;;;;;;4.85;3.78;;;;;;;13.41;100.00;96971.72;5050651;28;20075;-41
2023/01/01 08:09:48;;;;;;;4.10;3.67;;;;;;;13.30;100.00;96982.53;5050422;28;20072;-40
2023/01/01 08:12:16;;;;;;;5.53;3.90;;;;;;;13.45;100.00;96983.66;5053396;28;20084;-42
2023/01/01 08:14:45;;;;;;;4.75;3.90;;;;;;;13.60;100.00;96978.72;5054398;28;20068;-45
2023/01/01 08:17:15;;;;;;;4.05;3.65;;;;;;;13.63;100.00;96983.72;5047308;28;20444;-43
2023/01/01 08:19:43;;;;;;;4.80;3.60;;;;;;;13.76;100.00;96978.00;5046698;28;20076;-40
2023/01/01 08:22:11;;;;;;;6.30;4.05;;;;;;;13.96;100.00;96990.13;5046980;28;20572;-40
2023/01/01 08:24:40;;;;;;;4.93;3.65;;;;;;;14.09;99.64;96984.44;5053040;28;20080;-40
2023/01/01 08:27:10;;;;;;;3.58;3.08;;;;;;;14.23;94.02;96981.22;5051437;28;20069;-38
2023/01/01 08:29:39;;;;;;;4.88;3.80;;;;;;;14.37;94.16;96979.00;5048602;28;20076;-45
2023/01/01 08:32:07;;;;;;;3.80;3.40;;;;;;;14.45;94.70;96981.69;5052073;28;20106;-44
2023/01/01 08:34:37;;;;;;;4.88;3.60;;;;;;;14.48;97.49;96978.75;5052313;28;20481;-41
2023/01/01 08:37:05;;;;;;;6.73;3.80;;;;;;;14.30;100.00;96980.63;5048243;28;20081;-42
2023/01/01 08:39:34;;;;;;;3.97;3.45;;;;;;;14.59;100.00;96975.88;5053231;28;20079;-37
2023/01/01 08:42:02;;;;;;;5.43;3.53;;;;;;;14.70;100.00;96982.75;5049862;28;20483;-40
2023/01/01 08:44:39;;;;;;;4.90;3.40;;;;;;;14.65;99.97;96988.50;5047996;28;20088;-39
2023/01/01 08:47:08;;;;;;;5.63;3.42;;;;;;;14.71;100.00;96984.41;5047617;28;20091;-48
2023/01/01 08:49:38;;;;;;;6.70;3.43;;;;;;;14.75;100.00;96992.88;5048897;28;21030;-38
2023/01/01 08:52:06;;;;;;;4.53;3.33;;;;;;;14.96;98.97;96999.44;5051026;28;20510;-40
2023/01/01 08:54:34;;;;;;;6.35;3.30;;;;;;;14.69;100.00;96996.97;5053810;28;20521;-39
2023/01/01 08:57:03;;;;;;;5.22;3.40;;;;;;;14.98;100.00;96996.66;5052401;28;20084;-40
2023/01/01 08:59:31;;;;;;;3.50;3.10;;;;;;;15.29;93.73;96999.59;5058235;28;20095;-40
2023/01/01 09:01:59;;;;;;;5.50;3.60;;;;;;;15.42;92.22;97002.63;5051283;28;20080;-38
2023/01/01 09:04:28;;;;;;;5.95;3.45;;;;;;;15.50;90.50;96993.84;5054346;28;20095;-39
2023/01/01 09:06:57;;;;;;;3.97;2.72;;;;;;;15.64;84.90;96997.69;5051552;28;20080;-37
2023/01/01 09:09:25;;;;;;;4.45;3.13;;;;;;;15.74;84.17;97000.25;5054120;28;20158;-39
2023/01/01 09:12:02;;;;;;;4.35;3.50;;;;;;;15.76;85.83;97000.91;5052088;28;20084;-39
2023/01/01 09:14:32;;;;;;;3.40;3.05;;;;;;;15.78;88.77;96999.75;5052003;28;20549;-39
2023/01/01 09:17:00;;;;;;;4.45;3.10;;;;;;;15.66;92.06;97003.72;5054592;28;20076;-38
2023/01/01 09:19:28;;;;;;;4.88;3.10;;;;;;;15.46;89.07;97005.81;5054795;28;20087;-38
2023/01/01 09:21:58;;;;;;;3.90;3.22;;;;;;;15.96;86.53;96996.13;5056376;28;20085;-44
2023/01/01 09:24:27;;;;;;;3.42;3.13;;;;;;;15.99;88.00;96999.28;5051226;28;20547;-39
2023/01/01 09:26:55;;;;;;;5.10;3.45;;;;;;;16.00;87.00;97006.28;5051304;28;20073;-44
2023/01/01 09:29:23;;;;;;;5.45;3.50;;;;;;;16.02;84.05;96996.28;5055138;28;20083;-41
2023/01/01 09:31:52;;;;;;;4.22;3.53;;;;;;;16.25;84.26;97004.44;5055286;28;20080;-39
2023/01/01 09:34:20;;;;;;;3.90;3.50;;;;;;;16.36;85.57;97011.25;5055426;28;20092;-38
2023/01/01 09:36:48;;;;;;;7.32;3.47;;;;;;;16.56;85.64;97015.25;5052271;28;20045;-42
2023/01/01 09:39:18;;;;;;;3.33;3.03;;;;;;;16.63;83.37;97014.56;5053345;28;20079;-45
2023/01/01 09:42:01;;;;;;;4.32;3.10;;;;;;;16.58;83.04;97015.88;5055976;28;20080;-38
2023/01/01 09:44:49;;;;;;;3.60;2.88;;;;;;;16.72;81.32;97017.03;5052516;28;20083;-44
2023/01/01 09:47:23;;;;;;;3.25;2.92;;;;;;;16.91;79.48;97007.88;5052605;28;20573;-45
2023/01/01 09:49:52;;;;;;;3.58;2.90;;;;;;;16.97;81.83;97006.38;5050125;28;20073;-48
2023/01/01 09:52:21;;;;;;;3.83;2.95;;;;;;;17.09;85.56;97000.47;5055612;28;20536;-39
2023/01/01 09:54:56;;;;;;;4.32;2.92;;;;;;;17.01;85.62;96997.03;5052439;28;20084;-37
2023/01/01 09:57:27;;;;;;;3.85;2.75;;;;;;;17.39;82.54;96991.88;5053804;28;20099;-40
2023/01/01 09:59:55;;;;;;;4.18;2.65;;;;;;;17.57;78.03;96992.44;5052772;28;20077;-39
2023/01/01 10:02:35;;;;;;;5.88;3.10;;;;;;;17.74;76.30;96988.66;5055222;28;20091;-42
2023/01/01 10:05:26;;;;;;;3.67;3.00;;;;;;;17.74;76.06;96980.66;5049941;28;20122;-40
2023/01/01 10:07:59;;;;;;;4.60;2.95;;;;;;;18.04;75.31;96972.81;5051450;28;20087;-44
2023/01/01 10:10:36;;;;;;;3.60;2.40;;;;;;;18.20;78.10;96971.84;5054280;28;20073;-39
2023/01/01 10:13:13;;;;;;;4.20;2.80;;;;;;;18.39;77.97;96967.84;5057317;28;20072;-39
2023/01/01 10:15:49;;;;;;;5.07;2.90;;;;;;;18.56;75.01;96966.69;5055106;28;20095;-45
2023/01/01 10:18:21;;;;;;;3.88;2.78;;;;;;;18.60;73.01;96967.97;5053267;28;20703;-42
2023/01/01 10:20:56;;;;;;;4.18;2.22;;;;;;;18.68;71.74;96961.72;5050868;28;20139;-42
2023/01/01 10:23:27;;;;;;;3.13;2.20;;;;;;;18.88;69.86;96954.00;5054030;28;20084;-40
2023/01/01 10:25:58;;;;;;;3.85;2.30;;;;;;;18.82;72.83;96957.41;5055742;28;20550;-40
2023/01/01 10:28:32;;;;;;;3.00;2.10;;;;;;;19.01;72.05;96958.72;5052548;28;20095;-42
2023/01/01 10:31:14;;;;;;;2.75;2.13;;;;;;;19.29;73.79;96959.69;5054634;28;20481;-44
2023/01/01 10:33:43;;;;;;;3.40;2.10;;;;;;;19.35;70.99;96956.28;5049815;28;20461;-50
2023/01/01 10:36:14;;;;;;;2.97;2.05;;;;;;;19.49;71.61;96961.78;5058478;28;20067;-41
2023/01/01 10:38:42;;;;;;;2.60;2.05;;;;;;;19.55;70.84;96961.84;5054197;28;20063;-39
2023/01/01 10:41:12;;;;;;;2.50;1.80;;;;;;;19.81;64.38;96952.47;5054366;28;20080;-42
2023/01/01 10:43:48;;;;;;;3.28;2.00;;;;;;;19.73;63.30;96949.94;5056966;28;20052;-39
2023/01/01 10:46:20;;;;;;;3.00;2.10;;;;;;;20.09;60.65;96941.81;5054292;28;20076;-41
2023/01/01 10:49:09;;;;;;;3.45;1.90;;;;;;;19.40;67.40;96951.16;5051643;28;20084;-40
2023/01/01 10:51:43;;;;;;;3.45;1.83;;;;;;;19.64;65.51;96952.72;5052453;28;20516;-43
2023/01/01 10:54:26;;;;;;;3.47;2.00;;;;;;;19.91;69.16;96939.59;5055102;28;20077;-39
2023/01/01 10:57:00;;;;;;;2.92;1.85;;;;;;;20.14;69.42;96936.72;5055828;28;20544;-45
2023/01/01 10:59:34;;;;;;;4.18;2.30;;;;;;;20.48;63.65;96935.97;5050121;28;20053;-38
2023/01/01 11:02:18;;;;;;;4.40;2.00;;;;;;;20.56;57.26;96930.47;5056119;28;20068;-49
2023/01/01 11:04:47;;;;;;;3.88;2.08;;;;;;;19.90;65.90;96921.91;5055364;28;20524;-40
2023/01/01 11:07:25;;;;;;;4.63;2.20;;;;;;;19.99;66.73;96925.25;5053203;28;20084;-48
2023/01/01 11:09:57;;;;;;;3.65;2.00;;;;;;;20.43;66.38;96916.94;5052819;28;20471;-49
2023/01/01 11:12:35;;;;;;;4.00;2.53;;;;;;;20.71;61.25;96910.78;5053171;28;20135;-39
2023/01/01 11:15:30;;;;;;;4.95;2.22;;;;;;;20.55;64.76;96917.28;5057628;28;20080;-45
2023/01/01 11:18:04;;;;;;;4.20;2.40;;;;;;;20.67;61.99;96914.88;5055815;28;20076;-42
2023/01/01 11:20:33;;;;;;;4.88;2.30;;;;;;;21.33;59.17;96910.66;5051808;28;20068;-41
2023/01/01 11:23:18;;;;;;;3.42;2.00;;;;;;;21.45;59.73;96907.44;5052182;28;20072;-46
2023/01/01 11:26:05;;;;;;;3.50;2.28;;;;;;;21.53;61.01;96901.88;5055001;28;20075;-45
2023/01/01 11:28:35;;;;;;;4.20;1.98;;;;;;;21.61;61.27;96898.16;5051169;28;20074;-45
2023/01/01 11:31:12;;;;;;;3.33;2.10;;;;;;;21.35;57.52;96897.06;5051187;28;20512;-39
2023/01/01 11:33:44;;;;;;;3.28;1.92;;;;;;;21.84;55.03;96895.09;5053500;28;20072;-46
2023/01/01 11:36:21;;;;;;;2.80;1.60;;;;;;;21.47;55.59;96894.63;5051244;28;20079;-48
2023/01/01 11:38:50;;;;;;;3.47;1.85;;;;;;;21.68;55.69;96885.56;5049814;28;20080;-41